Time;durP1;ratioP1;P1;durP2;ratioP2;P2;SDS_P1;SDS_P2;PMS_P1;PMS_P2;Temp;Humidity;BMP_temperature;BMP_pressure;BME280_temperature;BME280_humidity;BME280_pressure;Samples;Min_cycle;Max_cycle;Signal;HPM_P1;HPM_P2
2021/12/13 00:01:50;;;;;;;61.05;33.70;;;;;;;;;;5095685;28;20024;-72
2021/12/13 00:04:34;;;;;;;65.70;34.55;;;;;;;;;;5092963;28;20036;-72
2021/12/13 00:07:03;;;;;;;67.75;34.05;;;;;;;;;;5089411;28;20028;-71
2021/12/13 00:09:31;;;;;;;68.45;35.42;;;;;;;;;;5101604;28;20518;-72
2021/12/13 00:12:01;;;;;;;58.13;33.90;;;;;;;;;;5095650;28;20036;-71
2021/12/13 00:14:33;;;;;;;63.88;33.50;;;;;;;;;;5096646;28;20053;-71
2021/12/13 00:17:08;;;;;;;64.03;36.30;;;;;;;;;;5094488;28;20031;-71
2021/12/13 00:19:37;;;;;;;70.10;32.58;;;;;;;;;;5093286;28;20370;-72
2021/12/13 00:22:12;;;;;;;87.43;36.15;;;;;;;;;;5092442;28;20165;-71
2021/12/13 00:24:40;;;;;;;66.80;34.22;;;;;;;;;;5096296;28;20031;-72
2021/12/13 00:27:15;;;;;;;67.50;33.40;;;;;;;;;;5094265;28;20028;-72
2021/12/13 00:29:47;;;;;;;69.70;33.80;;;;;;;;;;5099180;28;20473;-72
2021/12/13 00:32:19;;;;;;;69.53;31.80;;;;;;;;;;5097720;28;20036;-73
2021/12/13 00:34:54;;;;;;;66.20;33.33;;;;;;;;;;5092670;28;20028;-72
2021/12/13 00:37:30;;;;;;;69.28;34.75;;;;;;;;;;5095785;28;20070;-71
2021/12/13 00:40:02;;;;;;;79.20;37.30;;;;;;;;;;5095912;28;20028;-72
2021/12/13 00:42:33;;;;;;;73.00;35.85;;;;;;;;;;5092418;28;20062;-72
2021/12/13 00:45:02;;;;;;;64.00;34.05;;;;;;;;;;5093202;28;20024;-72
2021/12/13 00:47:29;;;;;;;64.25;34.35;;;;;;;;;;5084356;28;20040;-71
2021/12/13 00:49:59;;;;;;;65.30;35.65;;;;;;;;;;5091447;28;20028;-73
2021/12/13 00:52:26;;;;;;;66.40;34.20;;;;;;;;;;5092025;28;20055;-72
2021/12/13 00:54:54;;;;;;;69.43;33.03;;;;;;;;;;5090955;28;20390;-72
2021/12/13 00:57:38;;;;;;;67.75;31.52;;;;;;;;;;5089653;28;20016;-73
2021/12/13 01:00:16;;;;;;;66.95;33.60;;;;;;;;;;5093911;28;20035;-72
2021/12/13 01:02:45;;;;;;;61.15;31.65;;;;;;;;;;5088741;28;20024;-72
2021/12/13 01:05:14;;;;;;;56.00;33.03;;;;;;;;;;5091838;28;20492;-72
2021/12/13 01:08:04;;;;;;;65.75;33.75;;;;;;;;;;5090254;28;20028;-72
2021/12/13 01:10:42;;;;;;;77.55;37.00;;;;;;;;;;5090649;28;20493;-72
2021/12/13 01:13:11;;;;;;;76.60;37.33;;;;;;;;;;5105821;28;20032;-72
2021/12/13 01:15:44;;;;;;;69.20;34.58;;;;;;;;;;5091538;28;20027;-72
2021/12/13 01:18:29;;;;;;;69.82;36.35;;;;;;;;;;5078056;28;20488;-72
2021/12/13 01:21:11;;;;;;;70.93;38.03;;;;;;;;;;5093612;28;20135;-74
2021/12/13 01:23:43;;;;;;;70.35;36.85;;;;;;;;;;5072373;28;20044;-71
2021/12/13 01:28:43;;;;;;;73.85;35.13;;;;;;;;;;5090927;28;20032;-72
2021/12/13 01:31:18;;;;;;;75.60;36.92;;;;;;;;;;5089250;28;20040;-72
2021/12/13 01:33:46;;;;;;;73.50;35.05;;;;;;;;;;5089426;28;20415;-71
2021/12/13 01:36:16;;;;;;;69.10;38.03;;;;;;;;;;5101154;28;20459;-72
2021/12/13 01:38:45;;;;;;;95.05;40.05;;;;;;;;;;5093737;28;20028;-72
2021/12/13 01:41:14;;;;;;;74.13;39.20;;;;;;;;;;5094407;28;20030;-72
2021/12/13 01:43:43;;;;;;;87.72;42.63;;;;;;;;;;5094587;28;20032;-73
2021/12/13 01:46:10;;;;;;;94.85;48.35;;;;;;;;;;5097349;28;20369;-72
2021/12/13 01:48:38;;;;;;;111.07;55.42;;;;;;;;;;5094445;28;20078;-72
2021/12/13 01:51:07;;;;;;;103.28;51.03;;;;;;;;;;5094432;28;20359;-71
2021/12/13 01:53:47;;;;;;;96.65;50.47;;;;;;;;;;5095198;28;20032;-73
2021/12/13 01:56:39;;;;;;;102.10;49.75;;;;;;;;;;5093069;28;20511;-73
2021/12/13 01:59:17;;;;;;;100.22;50.55;;;;;;;;;;5091467;28;20042;-73
2021/12/13 02:01:44;;;;;;;96.18;51.45;;;;;;;;;;5093068;28;20028;-72
2021/12/13 02:04:15;;;;;;;126.65;61.70;;;;;;;;;;5093155;28;20381;-72
2021/12/13 02:06:43;;;;;;;130.32;58.92;;;;;;;;;;5090476;28;20036;-72
2021/12/13 02:09:30;;;;;;;108.18;56.10;;;;;;;;;;5089789;28;20145;-72
2021/12/13 02:11:57;;;;;;;116.10;53.03;;;;;;;;;;5092966;28;20028;-72
2021/12/13 02:14:29;;;;;;;107.43;51.25;;;;;;;;;;5093326;28;20074;-72
2021/12/13 02:17:08;;;;;;;108.55;49.28;;;;;;;;;;5092546;28;20032;-71
2021/12/13 02:19:41;;;;;;;109.18;50.45;;;;;;;;;;5087151;28;20381;-73
2021/12/13 02:22:22;;;;;;;96.63;46.90;;;;;;;;;;5090192;28;20109;-72
2021/12/13 02:24:50;;;;;;;94.38;45.65;;;;;;;;;;5089776;28;20178;-73
2021/12/13 02:27:20;;;;;;;94.80;46.80;;;;;;;;;;5085478;28;20538;-73
2021/12/13 02:29:47;;;;;;;98.25;45.63;;;;;;;;;;5088134;28;20420;-71
2021/12/13 02:32:13;;;;;;;86.10;44.90;;;;;;;;;;5087924;28;20062;-69
2021/12/13 02:34:42;;;;;;;96.55;43.30;;;;;;;;;;5087613;28;20032;-70
2021/12/13 02:37:09;;;;;;;94.55;43.50;;;;;;;;;;5084573;28;20032;-69
2021/12/13 02:39:44;;;;;;;77.40;39.55;;;;;;;;;;5087093;28;20020;-68
2021/12/13 02:42:11;;;;;;;80.13;38.55;;;;;;;;;;5085105;28;20020;-69
2021/12/13 02:44:40;;;;;;;71.20;33.97;;;;;;;;;;5086344;28;20039;-69
2021/12/13 02:47:09;;;;;;;70.47;32.78;;;;;;;;;;5085811;28;20036;-70
2021/12/13 02:49:37;;;;;;;73.65;34.90;;;;;;;;;;5086140;28;20115;-68
2021/12/13 02:52:05;;;;;;;65.20;32.72;;;;;;;;;;5085822;28;20032;-69
2021/12/13 02:54:38;;;;;;;57.38;28.92;;;;;;;;;;5085718;28;20115;-69
2021/12/13 02:57:06;;;;;;;61.70;29.90;;;;;;;;;;5085658;28;20406;-71
2021/12/13 02:59:34;;;;;;;67.00;28.30;;;;;;;;;;5083866;28;20024;-70
2021/12/13 03:02:05;;;;;;;61.20;27.27;;;;;;;;;;5087667;28;20051;-69
2021/12/13 03:04:32;;;;;;;57.45;28.17;;;;;;;;;;5080634;28;20112;-69
2021/12/13 03:07:02;;;;;;;56.53;28.73;;;;;;;;;;5090484;28;20050;-72
2021/12/13 03:09:30;;;;;;;65.55;33.88;;;;;;;;;;5091858;28;20362;-72
2021/12/13 03:11:57;;;;;;;70.85;36.22;;;;;;;;;;5086208;28;20023;-73
2021/12/13 03:14:25;;;;;;;83.22;42.70;;;;;;;;;;5088235;28;20028;-72
2021/12/13 03:17:00;;;;;;;93.25;47.40;;;;;;;;;;5083526;28;20103;-73
2021/12/13 03:19:44;;;;;;;95.78;50.35;;;;;;;;;;5091093;28;20028;-72
2021/12/13 03:22:36;;;;;;;95.45;50.28;;;;;;;;;;5086703;28;20048;-72
2021/12/13 03:25:14;;;;;;;99.30;52.85;;;;;;;;;;5084119;27;20081;-71
2021/12/13 03:27:58;;;;;;;103.75;52.20;;;;;;;;;;5088731;28;20106;-73
2021/12/13 03:30:39;;;;;;;93.45;51.03;;;;;;;;;;5087574;28;20378;-73
2021/12/13 03:33:09;;;;;;;104.07;53.42;;;;;;;;;;5088793;28;20039;-73
2021/12/13 03:35:38;;;;;;;109.13;55.25;;;;;;;;;;5088244;28;20466;-73
2021/12/13 03:38:07;;;;;;;104.43;54.50;;;;;;;;;;5087198;28;20081;-73
2021/12/13 03:40:34;;;;;;;97.60;53.03;;;;;;;;;;5086145;28;20598;-74
2021/12/13 03:43:04;;;;;;;106.75;56.08;;;;;;;;;;5090468;28;20417;-73
2021/12/13 03:45:39;;;;;;;96.03;51.00;;;;;;;;;;5085940;28;20032;-71
2021/12/13 03:48:08;;;;;;;112.22;53.85;;;;;;;;;;5085505;28;20032;-73
2021/12/13 03:50:37;;;;;;;97.53;54.20;;;;;;;;;;5087332;28;20409;-72
2021/12/13 03:53:05;;;;;;;98.60;52.42;;;;;;;;;;5085804;28;20028;-72
2021/12/13 03:55:32;;;;;;;109.50;52.92;;;;;;;;;;5084242;28;20439;-74
2021/12/13 03:58:00;;;;;;;96.55;52.75;;;;;;;;;;5088217;28;20031;-73
2021/12/13 04:00:29;;;;;;;98.97;52.58;;;;;;;;;;5087834;28;20026;-71
2021/12/13 04:02:58;;;;;;;103.53;55.00;;;;;;;;;;5083555;28;20405;-73
2021/12/13 04:05:26;;;;;;;107.22;53.88;;;;;;;;;;5085835;28;20020;-72
2021/12/13 04:07:57;;;;;;;110.15;54.63;;;;;;;;;;5083670;28;20039;-73
2021/12/13 04:10:35;;;;;;;101.35;51.60;;;;;;;;;;5085577;28;20032;-72
2021/12/13 04:13:09;;;;;;;99.43;51.13;;;;;;;;;;5088560;28;20039;-73
2021/12/13 04:15:58;;;;;;;99.65;52.42;;;;;;;;;;5087239;28;20032;-73
2021/12/13 04:21:23;;;;;;;100.22;53.88;;;;;;;;;;5087001;28;20028;-73
2021/12/13 04:23:54;;;;;;;105.95;54.65;;;;;;;;;;5084860;28;20036;-72
2021/12/13 04:26:22;;;;;;;106.03;53.72;;;;;;;;;;5084708;28;20071;-73
2021/12/13 04:28:51;;;;;;;98.55;51.85;;;;;;;;;;5087205;28;20036;-75
2021/12/13 04:31:21;;;;;;;102.25;52.10;;;;;;;;;;5081707;28;20516;-73
2021/12/13 04:33:53;;;;;;;94.57;52.22;;;;;;;;;;5081550;28;20040;-73
2021/12/13 04:36:25;;;;;;;97.82;52.45;;;;;;;;;;5081602;28;20016;-71
2021/12/13 04:39:17;;;;;;;104.38;55.50;;;;;;;;;;5083712;28;20020;-73
2021/12/13 04:41:43;;;;;;;112.00;57.08;;;;;;;;;;5083398;28;20035;-73
2021/12/13 04:44:11;;;;;;;109.72;57.72;;;;;;;;;;5086770;28;20107;-72
2021/12/13 04:46:39;;;;;;;119.47;58.03;;;;;;;;;;5086926;28;20297;-72
2021/12/13 04:49:12;;;;;;;97.80;56.03;;;;;;;;;;5082510;28;20039;-70
2021/12/13 04:51:45;;;;;;;113.07;60.60;;;;;;;;;;5094755;28;20050;-72
2021/12/13 04:54:13;;;;;;;116.78;61.08;;;;;;;;;;5084802;28;20024;-73
2021/12/13 04:56:39;;;;;;;109.63;57.75;;;;;;;;;;5079954;28;20054;-71
2021/12/13 04:59:07;;;;;;;114.53;61.22;;;;;;;;;;5083686;28;20529;-73
2021/12/13 05:01:34;;;;;;;114.95;68.28;;;;;;;;;;5086250;28;20031;-74
2021/12/13 05:04:03;;;;;;;117.05;67.15;;;;;;;;;;5085485;28;20103;-72
2021/12/13 05:06:32;;;;;;;123.60;71.03;;;;;;;;;;5083328;28;20027;-71
2021/12/13 05:08:59;;;;;;;125.38;70.25;;;;;;;;;;5086823;28;20077;-70
2021/12/13 05:11:38;;;;;;;120.22;64.88;;;;;;;;;;5088082;28;20111;-73
2021/12/13 05:14:05;;;;;;;125.22;65.15;;;;;;;;;;5089636;28;20368;-72
2021/12/13 05:16:55;;;;;;;114.68;62.67;;;;;;;;;;5086981;28;20429;-71
2021/12/13 05:19:34;;;;;;;105.72;57.50;;;;;;;;;;5089178;28;20016;-72
2021/12/13 05:22:02;;;;;;;94.80;57.67;;;;;;;;;;5092417;28;20048;-73
2021/12/13 05:24:30;;;;;;;94.45;55.78;;;;;;;;;;5094197;28;20043;-73
2021/12/13 05:26:58;;;;;;;98.10;52.15;;;;;;;;;;5095758;28;20027;-76
2021/12/13 05:29:24;;;;;;;106.28;54.25;;;;;;;;;;5091070;28;20078;-73
2021/12/13 05:31:55;;;;;;;90.20;51.22;;;;;;;;;;5089689;28;20074;-73
2021/12/13 05:34:22;;;;;;;93.15;51.65;;;;;;;;;;5087682;28;20031;-72
2021/12/13 05:36:56;;;;;;;83.70;48.55;;;;;;;;;;5090123;28;20046;-71
2021/12/13 05:39:23;;;;;;;88.15;47.83;;;;;;;;;;5085341;28;20504;-71
2021/12/13 05:41:51;;;;;;;79.97;44.42;;;;;;;;;;5096125;28;20047;-71
2021/12/13 05:44:24;;;;;;;86.43;44.25;;;;;;;;;;5091274;28;20028;-72
2021/12/13 05:46:50;;;;;;;78.32;44.40;;;;;;;;;;5089513;28;20035;-70
2021/12/13 05:49:19;;;;;;;90.10;45.05;;;;;;;;;;5086748;28;20089;-71
2021/12/13 05:51:49;;;;;;;87.20;45.20;;;;;;;;;;5087636;28;20370;-72
2021/12/13 05:54:27;;;;;;;71.15;39.70;;;;;;;;;;5085998;28;20423;-70
2021/12/13 05:56:53;;;;;;;71.22;37.60;;;;;;;;;;5084752;28;20025;-69
2021/12/13 05:59:22;;;;;;;79.60;41.25;;;;;;;;;;5084341;28;20028;-70
2021/12/13 06:01:51;;;;;;;80.47;40.88;;;;;;;;;;5083349;28;20300;-70
2021/12/13 06:04:26;;;;;;;79.43;38.78;;;;;;;;;;5086345;28;20054;-70
2021/12/13 06:06:54;;;;;;;84.28;39.38;;;;;;;;;;5084245;28;20118;-70
2021/12/13 06:09:39;;;;;;;87.85;40.17;;;;;;;;;;5088329;28;20016;-69
2021/12/13 06:12:08;;;;;;;94.03;44.97;;;;;;;;;;5085433;28;20111;-69
2021/12/13 06:14:34;;;;;;;86.95;42.47;;;;;;;;;;5084802;28;20489;-72
2021/12/13 06:17:01;;;;;;;78.95;42.05;;;;;;;;;;5083007;28;20535;-69
2021/12/13 06:19:32;;;;;;;96.00;44.30;;;;;;;;;;5083703;28;20032;-70
2021/12/13 06:22:08;;;;;;;82.22;42.65;;;;;;;;;;5083265;28;20371;-69
2021/12/13 06:24:36;;;;;;;86.00;42.65;;;;;;;;;;5083487;28;20024;-70
2021/12/13 06:27:15;;;;;;;82.85;43.25;;;;;;;;;;5083637;28;20032;-70
2021/12/13 06:29:47;;;;;;;79.97;43.67;;;;;;;;;;5082852;28;20039;-72
2021/12/13 06:32:32;;;;;;;84.03;39.80;;;;;;;;;;5081586;28;20036;-70
2021/12/13 06:34:59;;;;;;;69.82;39.35;;;;;;;;;;5081169;28;20040;-71
2021/12/13 06:37:35;;;;;;;76.45;39.88;;;;;;;;;;5083439;28;20042;-69
2021/12/13 06:40:19;;;;;;;67.35;35.70;;;;;;;;;;5080529;28;20440;-70
2021/12/13 06:42:45;;;;;;;78.03;36.85;;;;;;;;;;5083344;28;20121;-68
2021/12/13 06:45:23;;;;;;;69.70;36.88;;;;;;;;;;5083159;28;20036;-69
2021/12/13 06:47:52;;;;;;;65.18;32.75;;;;;;;;;;5082849;28;20035;-70
2021/12/13 06:50:23;;;;;;;66.90;30.88;;;;;;;;;;5082142;28;20472;-69
2021/12/13 06:52:50;;;;;;;60.47;33.60;;;;;;;;;;5079896;28;20028;-69
2021/12/13 06:55:19;;;;;;;51.85;27.63;;;;;;;;;;5083540;28;20123;-70
2021/12/13 06:57:51;;;;;;;53.35;24.90;;;;;;;;;;5083168;28;20145;-70
2021/12/13 07:00:20;;;;;;;38.95;24.73;;;;;;;;;;5090217;28;20462;-70
2021/12/13 07:02:51;;;;;;;45.33;24.58;;;;;;;;;;5089714;28;20056;-69
2021/12/13 07:05:19;;;;;;;50.88;28.63;;;;;;;;;;5089145;28;20112;-69
2021/12/13 07:07:46;;;;;;;56.03;29.95;;;;;;;;;;5086754;28;20679;-70
2021/12/13 07:10:20;;;;;;;56.90;34.83;;;;;;;;;;5081137;28;20024;-72
2021/12/13 07:12:57;;;;;;;66.38;36.92;;;;;;;;;;5082854;28;20086;-70
2021/12/13 07:15:38;;;;;;;61.30;35.85;;;;;;;;;;5083168;28;20026;-71
2021/12/13 07:18:08;;;;;;;66.03;39.03;;;;;;;;;;5083315;28;20035;-69
2021/12/13 07:20:43;;;;;;;67.15;42.20;;;;;;;;;;5079855;28;20031;-71
2021/12/13 07:23:10;;;;;;;66.93;41.95;;;;;;;;;;5079688;28;20394;-71
2021/12/13 07:25:38;;;;;;;71.55;41.83;;;;;;;;;;5077665;28;20386;-70
2021/12/13 07:28:08;;;;;;;74.18;46.95;;;;;;;;;;5086528;28;20028;-70
2021/12/13 07:30:36;;;;;;;121.25;71.05;;;;;;;;;;5092575;28;20051;-70
2021/12/13 07:33:08;;;;;;;88.20;52.33;;;;;;;;;;5089182;28;20032;-69
2021/12/13 07:35:35;;;;;;;80.25;49.80;;;;;;;;;;5092095;28;20062;-72
2021/12/13 07:38:05;;;;;;;77.80;50.15;;;;;;;;;;5086694;28;20020;-70
2021/12/13 07:40:34;;;;;;;64.10;39.45;;;;;;;;;;5085123;28;20041;-75
2021/12/13 07:43:19;;;;;;;56.13;35.70;;;;;;;;;;5082643;28;20032;-73
2021/12/13 07:45:49;;;;;;;56.92;32.92;;;;;;;;;;5082729;28;20394;-74
2021/12/13 07:48:18;;;;;;;60.40;37.95;;;;;;;;;;5083775;28;20086;-74
2021/12/13 07:50:45;;;;;;;58.45;37.67;;;;;;;;;;5074873;28;20978;-71
2021/12/13 07:53:17;;;;;;;56.08;34.47;;;;;;;;;;5078735;28;20031;-73
2021/12/13 07:55:47;;;;;;;55.65;32.45;;;;;;;;;;5077107;28;20599;-72
2021/12/13 07:58:17;;;;;;;47.22;31.73;;;;;;;;;;5081407;28;20523;-72
2021/12/13 08:00:44;;;;;;;51.95;33.53;;;;;;;;;;5079755;28;20066;-73
2021/12/13 08:03:12;;;;;;;53.15;33.42;;;;;;;;;;5083729;28;20027;-74
2021/12/13 08:05:45;;;;;;;53.15;34.80;;;;;;;;;;5082038;28;20062;-72
2021/12/13 08:08:21;;;;;;;57.63;35.10;;;;;;;;;;5079395;28;20206;-71
2021/12/13 08:10:49;;;;;;;58.67;36.28;;;;;;;;;;5080114;28;20575;-71
2021/12/13 08:13:17;;;;;;;50.83;35.17;;;;;;;;;;5076829;28;20028;-72
2021/12/13 08:15:49;;;;;;;55.72;34.97;;;;;;;;;;5086064;28;20131;-72
2021/12/13 08:18:28;;;;;;;52.20;32.83;;;;;;;;;;5085282;28;20020;-72
2021/12/13 08:21:15;;;;;;;56.17;35.15;;;;;;;;;;5085071;28;20032;-74
2021/12/13 08:23:44;;;;;;;52.42;33.17;;;;;;;;;;5071356;28;20079;-73
2021/12/13 08:26:12;;;;;;;57.40;35.65;;;;;;;;;;5082102;28;20032;-73
2021/12/13 08:28:42;;;;;;;67.45;36.95;;;;;;;;;;5080710;28;20776;-72
2021/12/13 08:31:10;;;;;;;60.63;37.22;;;;;;;;;;5082477;28;20021;-72
2021/12/13 08:33:39;;;;;;;66.40;39.17;;;;;;;;;;5081950;28;20024;-72
2021/12/13 08:36:10;;;;;;;62.67;38.92;;;;;;;;;;5081976;28;20028;-72
2021/12/13 08:38:51;;;;;;;60.17;37.72;;;;;;;;;;5079743;28;20089;-72
2021/12/13 08:41:44;;;;;;;58.00;37.75;;;;;;;;;;5085075;28;20035;-72
2021/12/13 08:44:13;;;;;;;58.35;37.47;;;;;;;;;;5084767;28;20035;-70
2021/12/13 08:46:55;;;;;;;62.75;35.15;;;;;;;;;;5087761;28;20473;-69
2021/12/13 08:49:27;;;;;;;56.63;36.75;;;;;;;;;;5096452;28;20122;-70
2021/12/13 08:52:04;;;;;;;64.22;35.80;;;;;;;;;;5091160;28;20028;-71
2021/12/13 08:54:36;;;;;;;58.85;35.95;;;;;;;;;;5091922;28;20032;-70
2021/12/13 08:57:07;;;;;;;61.08;37.38;;;;;;;;;;5096309;28;20419;-70
2021/12/13 08:59:33;;;;;;;64.18;37.88;;;;;;;;;;5086276;28;20024;-69
2021/12/13 09:02:07;;;;;;;63.20;38.92;;;;;;;;;;5086643;28;20450;-70
2021/12/13 09:04:44;;;;;;;65.97;38.03;;;;;;;;;;5087261;28;20358;-71
2021/12/13 09:10:37;;;;;;;63.22;39.08;;;;;;;;;;5084789;28;20035;-69
2021/12/13 09:13:22;;;;;;;66.20;41.00;;;;;;;;;;5089248;28;20077;-70
2021/12/13 09:19:09;;;;;;;60.45;35.65;;;;;;;;;;5089649;28;20269;-68
2021/12/13 09:21:44;;;;;;;61.50;37.72;;;;;;;;;;5089509;28;20043;-70
2021/12/13 09:27:22;;;;;;;65.40;35.90;;;;;;;;;;5087218;28;20385;-70
2021/12/13 09:29:55;;;;;;;62.67;33.67;;;;;;;;;;5090790;28;20127;-68
2021/12/13 09:32:24;;;;;;;59.05;34.65;;;;;;;;;;5082628;28;20036;-69
2021/12/13 09:35:10;;;;;;;63.65;34.28;;;;;;;;;;5090084;28;20123;-72
2021/12/13 09:37:36;;;;;;;53.58;33.88;;;;;;;;;;5089340;28;20055;-69
2021/12/13 09:40:04;;;;;;;53.97;32.13;;;;;;;;;;5087221;28;20043;-68
2021/12/13 09:42:31;;;;;;;51.92;31.00;;;;;;;;;;5082822;28;20027;-69
2021/12/13 09:45:02;;;;;;;43.78;28.50;;;;;;;;;;5083618;28;20086;-70
2021/12/13 09:47:33;;;;;;;49.03;28.90;;;;;;;;;;5081534;28;20036;-72
2021/12/13 09:50:00;;;;;;;46.85;30.02;;;;;;;;;;5086663;28;20403;-70
2021/12/13 09:52:37;;;;;;;47.75;29.40;;;;;;;;;;5086710;28;20085;-70
2021/12/13 09:55:07;;;;;;;42.85;29.33;;;;;;;;;;5088751;28;20038;-70
2021/12/13 09:57:49;;;;;;;54.15;29.70;;;;;;;;;;5085231;28;20028;-70
2021/12/13 10:00:22;;;;;;;50.80;31.75;;;;;;;;;;5086153;28;20016;-71
2021/12/13 10:02:51;;;;;;;57.35;32.97;;;;;;;;;;5090011;28;20035;-73
2021/12/13 10:05:20;;;;;;;66.45;36.78;;;;;;;;;;5088374;28;20425;-71
2021/12/13 10:07:51;;;;;;;49.35;31.88;;;;;;;;;;5086656;28;20113;-73
2021/12/13 10:10:30;;;;;;;57.65;32.95;;;;;;;;;;5080557;28;20028;-72
2021/12/13 10:12:59;;;;;;;54.70;32.83;;;;;;;;;;5084120;28;20047;-73
2021/12/13 10:15:28;;;;;;;48.40;31.60;;;;;;;;;;5080364;28;20106;-72
2021/12/13 10:17:56;;;;;;;55.83;31.17;;;;;;;;;;5084725;28;20073;-71
2021/12/13 10:20:29;;;;;;;51.90;31.98;;;;;;;;;;5079431;28;20032;-75
2021/12/13 10:22:55;;;;;;;49.03;32.95;;;;;;;;;;5082502;28;20069;-71
2021/12/13 10:25:22;;;;;;;56.47;33.72;;;;;;;;;;5088814;28;20032;-72
2021/12/13 10:27:49;;;;;;;51.85;33.85;;;;;;;;;;5089482;28;20119;-72
2021/12/13 10:30:39;;;;;;;57.10;37.60;;;;;;;;;;5097383;28;20024;-73
2021/12/13 10:33:06;;;;;;;76.25;40.67;;;;;;;;;;5079889;28;20059;-72
2021/12/13 10:35:37;;;;;;;62.53;37.50;;;;;;;;;;5087107;28;20115;-72
2021/12/13 10:38:11;;;;;;;57.17;39.00;;;;;;;;;;5086699;28;20036;-72
2021/12/13 10:40:40;;;;;;;67.18;39.53;;;;;;;;;;5088807;28;20028;-72
2021/12/13 10:43:11;;;;;;;62.47;38.55;;;;;;;;;;5092849;28;20031;-73
2021/12/13 10:45:41;;;;;;;80.85;48.63;;;;;;;;;;5090383;28;20355;-72
2021/12/13 10:48:11;;;;;;;77.85;46.90;;;;;;;;;;5090936;28;20024;-71
2021/12/13 10:50:37;;;;;;;62.58;38.75;;;;;;;;;;5082158;28;20489;-72
2021/12/13 10:53:05;;;;;;;72.05;43.22;;;;;;;;;;5086631;28;20552;-73
2021/12/13 10:55:34;;;;;;;60.40;39.78;;;;;;;;;;5094314;28;20024;-72
2021/12/13 10:58:02;;;;;;;66.40;37.75;;;;;;;;;;5091850;28;20028;-73
2021/12/13 11:00:37;;;;;;;63.50;39.88;;;;;;;;;;5090821;28;20478;-73
2021/12/13 11:03:06;;;;;;;73.40;44.22;;;;;;;;;;5087776;28;20086;-73
2021/12/13 11:05:33;;;;;;;71.45;41.72;;;;;;;;;;5089164;28;20068;-73
2021/12/13 11:08:00;;;;;;;65.35;38.67;;;;;;;;;;5089007;28;20025;-73
2021/12/13 11:10:39;;;;;;;60.55;38.85;;;;;;;;;;5094275;28;20030;-73
2021/12/13 11:13:06;;;;;;;65.43;40.00;;;;;;;;;;5090170;28;20035;-73
2021/12/13 11:15:34;;;;;;;70.93;40.88;;;;;;;;;;5089795;28;20709;-73
2021/12/13 11:18:02;;;;;;;65.38;40.33;;;;;;;;;;5087308;28;20044;-73
2021/12/13 11:20:32;;;;;;;70.72;43.25;;;;;;;;;;5084221;28;20021;-73
2021/12/13 11:22:59;;;;;;;78.88;45.28;;;;;;;;;;5090803;28;20447;-74
2021/12/13 11:25:28;;;;;;;77.43;44.78;;;;;;;;;;5093009;28;20027;-72
2021/12/13 11:27:56;;;;;;;80.18;42.85;;;;;;;;;;5084796;28;20466;-72
2021/12/13 11:30:24;;;;;;;109.18;60.35;;;;;;;;;;5086097;28;20039;-73
2021/12/13 11:32:57;;;;;;;117.10;61.85;;;;;;;;;;5083493;28;20039;-73
2021/12/13 11:35:30;;;;;;;108.63;56.22;;;;;;;;;;5086304;28;20163;-73
2021/12/13 11:38:00;;;;;;;97.57;52.58;;;;;;;;;;5087616;28;20469;-70
2021/12/13 11:40:32;;;;;;;88.75;51.28;;;;;;;;;;5086757;28;20020;-71
2021/12/13 11:43:12;;;;;;;88.25;51.00;;;;;;;;;;5086713;28;20020;-71
2021/12/13 11:46:07;;;;;;;87.47;51.85;;;;;;;;;;5084742;28;20035;-71
2021/12/13 11:48:46;;;;;;;92.03;53.60;;;;;;;;;;5070486;28;20100;-72
2021/12/13 11:51:15;;;;;;;110.03;59.17;;;;;;;;;;5096046;28;20040;-70
2021/12/13 11:53:50;;;;;;;120.35;63.67;;;;;;;;;;5086189;28;20020;-70
2021/12/13 11:56:35;;;;;;;108.95;62.55;;;;;;;;;;5090612;28;20824;-72
2021/12/13 11:59:07;;;;;;;109.20;62.67;;;;;;;;;;5087193;28;20466;-70
2021/12/13 12:01:40;;;;;;;108.53;61.97;;;;;;;;;;5092348;28;20020;-71
2021/12/13 12:04:24;;;;;;;103.68;54.83;;;;;;;;;;5090839;28;20107;-71
2021/12/13 12:06:51;;;;;;;102.53;56.50;;;;;;;;;;5086551;28;20034;-74
2021/12/13 12:09:24;;;;;;;89.57;51.33;;;;;;;;;;5088083;28;20032;-72
2021/12/13 12:12:07;;;;;;;79.15;50.40;;;;;;;;;;5087418;28;20106;-72
2021/12/13 12:14:34;;;;;;;88.57;48.88;;;;;;;;;;5082015;28;20480;-73
2021/12/13 12:17:01;;;;;;;80.95;46.47;;;;;;;;;;5087540;28;20028;-72
2021/12/13 12:19:29;;;;;;;85.50;46.08;;;;;;;;;;5084977;28;20025;-72
2021/12/13 12:21:58;;;;;;;75.88;44.47;;;;;;;;;;5085261;28;20040;-71
2021/12/13 12:24:33;;;;;;;79.20;43.63;;;;;;;;;;5090454;28;20474;-74
2021/12/13 12:27:16;;;;;;;67.60;40.22;;;;;;;;;;5084348;28;20024;-71
2021/12/13 12:29:49;;;;;;;73.55;42.65;;;;;;;;;;5080149;28;20966;-71
2021/12/13 12:32:24;;;;;;;68.40;37.58;;;;;;;;;;5083416;28;20028;-72
2021/12/13 12:35:01;;;;;;;72.20;40.33;;;;;;;;;;5081969;28;20031;-71
2021/12/13 12:37:31;;;;;;;64.70;38.13;;;;;;;;;;5084923;28;20023;-71
2021/12/13 12:40:04;;;;;;;80.60;42.30;;;;;;;;;;5085599;28;20028;-73
2021/12/13 12:42:36;;;;;;;75.75;42.17;;;;;;;;;;5089763;28;20016;-71
2021/12/13 12:45:21;;;;;;;71.47;39.58;;;;;;;;;;5088837;28;20035;-70
2021/12/13 12:47:47;;;;;;;67.90;38.85;;;;;;;;;;5086258;28;20034;-71
2021/12/13 12:50:17;;;;;;;82.40;44.28;;;;;;;;;;5088819;28;20066;-71
2021/12/13 12:52:51;;;;;;;82.18;49.58;;;;;;;;;;5089174;28;20024;-71
2021/12/13 12:55:19;;;;;;;175.18;104.60;;;;;;;;;;5088949;28;20204;-70
2021/12/13 12:57:46;;;;;;;183.88;103.45;;;;;;;;;;5087146;28;20023;-71
2021/12/13 13:00:13;;;;;;;192.82;114.40;;;;;;;;;;5087569;28;20027;-71
2021/12/13 13:02:39;;;;;;;279.05;173.63;;;;;;;;;;5090378;28;20031;-72
2021/12/13 13:05:09;;;;;;;263.35;158.05;;;;;;;;;;5089324;28;20429;-71
2021/12/13 13:07:37;;;;;;;250.55;148.52;;;;;;;;;;5086367;28;20588;-72
2021/12/13 13:12:51;;;;;;;299.50;181.80;;;;;;;;;;5085635;28;20024;-71
2021/12/13 13:15:18;;;;;;;246.32;143.05;;;;;;;;;;5086008;28;20069;-71
2021/12/13 13:17:46;;;;;;;236.88;138.98;;;;;;;;;;5085087;28;20028;-73
2021/12/13 13:20:12;;;;;;;230.48;132.23;;;;;;;;;;5088722;28;20373;-71
2021/12/13 13:22:40;;;;;;;200.30;118.13;;;;;;;;;;5091760;28;20047;-71
2021/12/13 13:25:11;;;;;;;186.90;105.97;;;;;;;;;;5090951;28;20092;-71
2021/12/13 13:27:38;;;;;;;164.32;96.10;;;;;;;;;;5092978;28;20019;-71
2021/12/13 13:30:10;;;;;;;151.82;88.18;;;;;;;;;;5091650;28;20020;-71
2021/12/13 13:32:37;;;;;;;149.38;85.72;;;;;;;;;;5089009;28;20477;-71
2021/12/13 13:35:04;;;;;;;154.27;88.28;;;;;;;;;;5090849;28;20478;-71
2021/12/13 13:37:33;;;;;;;153.18;90.80;;;;;;;;;;5092936;28;20036;-71
2021/12/13 13:40:02;;;;;;;167.93;99.47;;;;;;;;;;5093587;28;20370;-72
2021/12/13 13:42:31;;;;;;;173.18;106.53;;;;;;;;;;5093979;28;20023;-71
2021/12/13 13:45:04;;;;;;;198.00;120.00;;;;;;;;;;5092806;28;20104;-71
2021/12/13 13:47:41;;;;;;;184.52;114.45;;;;;;;;;;5087686;28;20027;-71
2021/12/13 13:50:20;;;;;;;194.27;113.65;;;;;;;;;;5092923;28;20042;-71
2021/12/13 13:52:48;;;;;;;187.95;115.80;;;;;;;;;;5091667;28;20027;-71
2021/12/13 13:55:24;;;;;;;200.95;117.88;;;;;;;;;;5084507;28;20086;-71
2021/12/13 13:57:52;;;;;;;181.60;110.28;;;;;;;;;;5092299;28;20024;-71
2021/12/13 14:00:19;;;;;;;193.98;110.82;;;;;;;;;;5090887;28;20020;-71
2021/12/13 14:02:46;;;;;;;187.70;113.07;;;;;;;;;;5088089;28;20028;-70
2021/12/13 14:05:13;;;;;;;190.02;112.13;;;;;;;;;;5091848;28;20061;-71
2021/12/13 14:07:40;;;;;;;182.63;109.07;;;;;;;;;;5090903;28;20020;-71
2021/12/13 14:10:17;;;;;;;169.48;103.07;;;;;;;;;;5090235;28;20055;-71
2021/12/13 14:12:49;;;;;;;170.43;103.90;;;;;;;;;;5091949;28;20046;-70
2021/12/13 14:15:35;;;;;;;149.15;88.28;;;;;;;;;;5090856;28;20028;-71
2021/12/13 14:18:06;;;;;;;144.75;82.25;;;;;;;;;;5085571;28;20032;-72
2021/12/13 14:20:38;;;;;;;134.52;80.72;;;;;;;;;;5091539;28;20112;-71
2021/12/13 14:23:13;;;;;;;133.88;80.47;;;;;;;;;;5090898;28;20084;-72
2021/12/13 14:25:51;;;;;;;139.07;81.90;;;;;;;;;;5086385;28;20017;-72
2021/12/13 14:28:28;;;;;;;143.90;82.38;;;;;;;;;;5090144;28;20043;-72
2021/12/13 14:30:55;;;;;;;152.40;98.78;;;;;;;;;;5090838;28;20020;-71
2021/12/13 14:33:21;;;;;;;152.25;102.18;;;;;;;;;;5090535;28;20059;-72
2021/12/13 14:35:53;;;;;;;166.88;108.70;;;;;;;;;;5093338;28;20028;-71
2021/12/13 14:38:19;;;;;;;142.57;97.93;;;;;;;;;;5092001;28;20016;-72
2021/12/13 14:40:53;;;;;;;122.82;72.88;;;;;;;;;;5089845;28;20031;-72
2021/12/13 14:43:21;;;;;;;110.18;63.53;;;;;;;;;;5088686;28;20158;-71
2021/12/13 14:45:48;;;;;;;99.80;62.42;;;;;;;;;;5087433;28;20485;-71
2021/12/13 14:48:16;;;;;;;113.20;59.72;;;;;;;;;;5084681;28;20027;-72
2021/12/13 14:50:47;;;;;;;107.03;64.57;;;;;;;;;;5089144;28;20034;-71
2021/12/13 14:53:20;;;;;;;125.40;67.50;;;;;;;;;;5085341;28;20027;-70
2021/12/13 14:55:47;;;;;;;112.60;66.05;;;;;;;;;;5092688;28;20020;-70